sensor_id;sensor_type;location;lat;lon;timestamp;temperature;humidity
530;DHT22;251;48.704;9.210;2023-03-01T00:00:00;-1.80;26.80
530;DHT22;251;48.704;9.210;2023-03-01T00:02:37;-1.80;26.20
530;DHT22;251;48.704;9.210;2023-03-01T00:05:04;-1.70;26.70
530;DHT22;251;48.704;9.210;2023-03-01T00:07:32;-1.40;26.90
530;DHT22;251;48.704;9.210;2023-03-01T00:09:59;-1.50;27.30
530;DHT22;251;48.704;9.210;2023-03-01T00:12:27;-1.90;28.40
530;DHT22;251;48.704;9.210;2023-03-01T00:14:54;-1.90;27.30
530;DHT22;251;48.704;9.210;2023-03-01T00:17:21;-1.90;27.00
530;DHT22;251;48.704;9.210;2023-03-01T00:19:47;-1.90;26.90
530;DHT22;251;48.704;9.210;2023-03-01T00:22:14;-1.90;27.20
530;DHT22;251;48.704;9.210;2023-03-01T00:24:41;-1.90;27.30
530;DHT22;251;48.704;9.210;2023-03-01T00:27:08;-1.90;28.10
530;DHT22;251;48.704;9.210;2023-03-01T00:29:36;-1.80;28.20
530;DHT22;251;48.704;9.210;2023-03-01T00:32:03;-1.70;27.70
530;DHT22;251;48.704;9.210;2023-03-01T00:34:30;-1.70;27.60
530;DHT22;251;48.704;9.210;2023-03-01T00:36:57;-2.00;28.10
530;DHT22;251;48.704;9.210;2023-03-01T00:39:31;-1.90;27.90
530;DHT22;251;48.704;9.210;2023-03-01T00:41:57;-1.60;27.50
530;DHT22;251;48.704;9.210;2023-03-01T00:44:24;-1.90;27.80
530;DHT22;251;48.704;9.210;2023-03-01T00:46:52;-1.90;28.30
530;DHT22;251;48.704;9.210;2023-03-01T00:49:19;-1.90;27.90
530;DHT22;251;48.704;9.210;2023-03-01T00:51:46;-1.90;28.10
530;DHT22;251;48.704;9.210;2023-03-01T00:54:13;-1.90;28.50
530;DHT22;251;48.704;9.210;2023-03-01T00:56:39;-1.70;28.80
530;DHT22;251;48.704;9.210;2023-03-01T00:59:06;-2.00;28.50
530;DHT22;251;48.704;9.210;2023-03-01T01:01:33;-2.20;27.70
530;DHT22;251;48.704;9.210;2023-03-01T01:04:03;-1.80;27.90
530;DHT22;251;48.704;9.210;2023-03-01T01:06:32;-2.10;28.00
530;DHT22;251;48.704;9.210;2023-03-01T01:08:59;-2.10;28.20
530;DHT22;251;48.704;9.210;2023-03-01T01:11:28;-2.20;28.10
530;DHT22;251;48.704;9.210;2023-03-01T01:13:56;-2.10;28.00
530;DHT22;251;48.704;9.210;2023-03-01T01:16:25;-2.10;28.10
530;DHT22;251;48.704;9.210;2023-03-01T01:18:52;-2.00;28.40
530;DHT22;251;48.704;9.210;2023-03-01T01:21:22;-2.10;29.00
530;DHT22;251;48.704;9.210;2023-03-01T01:23:50;-2.30;28.60
530;DHT22;251;48.704;9.210;2023-03-01T01:26:20;-2.20;28.60
530;DHT22;251;48.704;9.210;2023-03-01T01:28:48;-2.10;28.60
530;DHT22;251;48.704;9.210;2023-03-01T01:31:15;-2.30;28.70
530;DHT22;251;48.704;9.210;2023-03-01T01:33:42;-2.30;28.60
530;DHT22;251;48.704;9.210;2023-03-01T01:36:09;-2.00;29.50
530;DHT22;251;48.704;9.210;2023-03-01T01:38:38;-2.30;28.70
530;DHT22;251;48.704;9.210;2023-03-01T01:41:05;-2.30;28.70
530;DHT22;251;48.704;9.210;2023-03-01T01:43:34;-2.30;28.70
530;DHT22;251;48.704;9.210;2023-03-01T01:46:04;-2.30;28.40
530;DHT22;251;48.704;9.210;2023-03-01T01:48:37;-2.40;28.20
530;DHT22;251;48.704;9.210;2023-03-01T01:51:09;-2.30;29.00
530;DHT22;251;48.704;9.210;2023-03-01T01:53:39;-2.40;29.80
530;DHT22;251;48.704;9.210;2023-03-01T01:56:08;-2.40;30.20
530;DHT22;251;48.704;9.210;2023-03-01T01:58:37;-2.30;30.60
530;DHT22;251;48.704;9.210;2023-03-01T02:01:05;-2.30;30.00
530;DHT22;251;48.704;9.210;2023-03-01T02:03:33;-2.30;31.10
530;DHT22;251;48.704;9.210;2023-03-01T02:06:05;-2.10;31.50
530;DHT22;251;48.704;9.210;2023-03-01T02:08:36;-2.20;31.50
530;DHT22;251;48.704;9.210;2023-03-01T02:11:05;-2.00;31.90
530;DHT22;251;48.704;9.210;2023-03-01T02:13:34;-2.10;32.50
530;DHT22;251;48.704;9.210;2023-03-01T02:16:03;-1.70;32.90
530;DHT22;251;48.704;9.210;2023-03-01T02:18:30;-1.70;33.40
530;DHT22;251;48.704;9.210;2023-03-01T02:21:08;-1.90;32.50
530;DHT22;251;48.704;9.210;2023-03-01T02:23:37;-1.80;32.80
530;DHT22;251;48.704;9.210;2023-03-01T02:26:09;-1.80;33.10
530;DHT22;251;48.704;9.210;2023-03-01T02:28:42;-1.70;33.00
530;DHT22;251;48.704;9.210;2023-03-01T02:31:13;-1.40;33.50
530;DHT22;251;48.704;9.210;2023-03-01T02:33:58;-1.30;34.30
530;DHT22;251;48.704;9.210;2023-03-01T02:36:31;-1.50;33.60
530;DHT22;251;48.704;9.210;2023-03-01T02:38:59;-1.50;33.50
530;DHT22;251;48.704;9.210;2023-03-01T02:41:29;-1.40;32.20
530;DHT22;251;48.704;9.210;2023-03-01T02:43:59;-1.00;33.10
530;DHT22;251;48.704;9.210;2023-03-01T02:46:26;-1.30;31.70
530;DHT22;251;48.704;9.210;2023-03-01T02:48:55;-1.00;32.60
530;DHT22;251;48.704;9.210;2023-03-01T02:51:31;-1.20;31.90
530;DHT22;251;48.704;9.210;2023-03-01T02:54:12;-0.80;31.70
530;DHT22;251;48.704;9.210;2023-03-01T02:56:43;-0.70;31.80
530;DHT22;251;48.704;9.210;2023-03-01T02:59:12;-0.80;31.90
530;DHT22;251;48.704;9.210;2023-03-01T03:01:39;-0.80;30.60
530;DHT22;251;48.704;9.210;2023-03-01T03:04:10;-0.70;30.70
530;DHT22;251;48.704;9.210;2023-03-01T03:06:37;-0.90;30.50
530;DHT22;251;48.704;9.210;2023-03-01T03:09:04;-0.60;30.90
530;DHT22;251;48.704;9.210;2023-03-01T03:11:31;-0.50;30.40
530;DHT22;251;48.704;9.210;2023-03-01T03:13:58;-0.60;30.10
530;DHT22;251;48.704;9.210;2023-03-01T03:16:27;-0.50;29.60
530;DHT22;251;48.704;9.210;2023-03-01T03:18:55;-0.50;29.90
530;DHT22;251;48.704;9.210;2023-03-01T03:21:30;-0.30;29.10
530;DHT22;251;48.704;9.210;2023-03-01T03:23:57;-0.30;29.10
530;DHT22;251;48.704;9.210;2023-03-01T03:26:24;-0.30;28.50
530;DHT22;251;48.704;9.210;2023-03-01T03:28:50;-0.60;28.20
530;DHT22;251;48.704;9.210;2023-03-01T03:31:17;-0.30;27.90
530;DHT22;251;48.704;9.210;2023-03-01T03:33:45;-0.50;27.40
530;DHT22;251;48.704;9.210;2023-03-01T03:36:15;-0.30;27.50
530;DHT22;251;48.704;9.210;2023-03-01T03:38:44;-0.30;27.60
530;DHT22;251;48.704;9.210;2023-03-01T03:41:11;-0.20;27.20
530;DHT22;251;48.704;9.210;2023-03-01T03:43:39;-0.50;26.80
530;DHT22;251;48.704;9.210;2023-03-01T03:46:08;-0.60;26.60
530;DHT22;251;48.704;9.210;2023-03-01T03:48:37;-0.30;27.00
530;DHT22;251;48.704;9.210;2023-03-01T03:51:05;-0.10;27.00
530;DHT22;251;48.704;9.210;2023-03-01T03:53:32;-0.20;26.70
530;DHT22;251;48.704;9.210;2023-03-01T03:55:59;-0.10;26.80
530;DHT22;251;48.704;9.210;2023-03-01T03:58:26;-0.10;26.30
530;DHT22;251;48.704;9.210;2023-03-01T04:00:55;0.00;26.40
530;DHT22;251;48.704;9.210;2023-03-01T04:03:23;0.00;26.10
530;DHT22;251;48.704;9.210;2023-03-01T04:05:51;-0.10;25.90
530;DHT22;251;48.704;9.210;2023-03-01T04:08:21;0.00;26.20
530;DHT22;251;48.704;9.210;2023-03-01T04:10:49;0.00;26.00
530;DHT22;251;48.704;9.210;2023-03-01T04:13:17;0.10;25.90
530;DHT22;251;48.704;9.210;2023-03-01T04:15:45;0.20;26.20
530;DHT22;251;48.704;9.210;2023-03-01T04:18:12;0.20;25.70
530;DHT22;251;48.704;9.210;2023-03-01T04:20:39;0.10;25.80
530;DHT22;251;48.704;9.210;2023-03-01T04:23:08;0.20;25.50
530;DHT22;251;48.704;9.210;2023-03-01T04:25:41;0.20;25.60
530;DHT22;251;48.704;9.210;2023-03-01T04:28:09;0.20;25.70
530;DHT22;251;48.704;9.210;2023-03-01T04:30:36;0.10;25.40
530;DHT22;251;48.704;9.210;2023-03-01T04:33:04;0.10;25.60
530;DHT22;251;48.704;9.210;2023-03-01T04:35:32;0.10;24.70
530;DHT22;251;48.704;9.210;2023-03-01T04:37:59;-0.10;25.10
530;DHT22;251;48.704;9.210;2023-03-01T04:40:26;0.20;25.20
530;DHT22;251;48.704;9.210;2023-03-01T04:42:54;0.10;24.50
530;DHT22;251;48.704;9.210;2023-03-01T04:45:20;-0.10;24.20
530;DHT22;251;48.704;9.210;2023-03-01T04:47:47;0.20;24.40
530;DHT22;251;48.704;9.210;2023-03-01T04:50:16;0.10;25.10
530;DHT22;251;48.704;9.210;2023-03-01T04:52:46;0.10;24.80
530;DHT22;251;48.704;9.210;2023-03-01T04:55:13;0.10;24.50
530;DHT22;251;48.704;9.210;2023-03-01T04:57:40;-0.10;24.30
530;DHT22;251;48.704;9.210;2023-03-01T05:00:11;0.10;24.40
530;DHT22;251;48.704;9.210;2023-03-01T05:02:47;0.00;25.20
530;DHT22;251;48.704;9.210;2023-03-01T05:05:23;0.10;24.90
530;DHT22;251;48.704;9.210;2023-03-01T05:07:55;0.20;24.80
530;DHT22;251;48.704;9.210;2023-03-01T05:10:22;0.10;24.90
530;DHT22;251;48.704;9.210;2023-03-01T05:12:49;0.20;24.40
530;DHT22;251;48.704;9.210;2023-03-01T05:15:19;0.10;24.30
530;DHT22;251;48.704;9.210;2023-03-01T05:17:47;0.20;24.10
530;DHT22;251;48.704;9.210;2023-03-01T05:20:14;0.30;24.20
530;DHT22;251;48.704;9.210;2023-03-01T05:22:41;0.40;24.80
530;DHT22;251;48.704;9.210;2023-03-01T05:25:08;0.30;24.80
530;DHT22;251;48.704;9.210;2023-03-01T05:27:35;0.30;24.30
530;DHT22;251;48.704;9.210;2023-03-01T05:30:03;0.30;24.40
530;DHT22;251;48.704;9.210;2023-03-01T05:32:41;0.40;24.90
530;DHT22;251;48.704;9.210;2023-03-01T05:35:10;0.40;24.60
530;DHT22;251;48.704;9.210;2023-03-01T05:37:41;0.40;24.30
530;DHT22;251;48.704;9.210;2023-03-01T05:40:09;0.30;24.30
530;DHT22;251;48.704;9.210;2023-03-01T05:42:45;0.30;24.70
530;DHT22;251;48.704;9.210;2023-03-01T05:45:12;0.40;24.20
530;DHT22;251;48.704;9.210;2023-03-01T05:47:43;0.20;23.90
530;DHT22;251;48.704;9.210;2023-03-01T05:50:12;0.30;24.30
530;DHT22;251;48.704;9.210;2023-03-01T05:52:39;0.40;24.50
530;DHT22;251;48.704;9.210;2023-03-01T05:55:07;0.30;24.00
530;DHT22;251;48.704;9.210;2023-03-01T05:57:34;0.50;24.20
530;DHT22;251;48.704;9.210;2023-03-01T06:00:01;0.40;23.70
530;DHT22;251;48.704;9.210;2023-03-01T06:02:38;0.40;24.00
530;DHT22;251;48.704;9.210;2023-03-01T06:05:08;0.40;23.80
530;DHT22;251;48.704;9.210;2023-03-01T06:07:36;0.20;23.30
530;DHT22;251;48.704;9.210;2023-03-01T06:10:04;0.40;23.50
530;DHT22;251;48.704;9.210;2023-03-01T06:12:31;0.40;23.60
530;DHT22;251;48.704;9.210;2023-03-01T06:14:58;0.40;24.20
530;DHT22;251;48.704;9.210;2023-03-01T06:17:25;0.40;23.60
530;DHT22;251;48.704;9.210;2023-03-01T06:19:52;0.40;23.30
530;DHT22;251;48.704;9.210;2023-03-01T06:22:20;0.40;23.60
530;DHT22;251;48.704;9.210;2023-03-01T06:24:47;0.40;23.80
530;DHT22;251;48.704;9.210;2023-03-01T06:27:14;0.40;23.90
530;DHT22;251;48.704;9.210;2023-03-01T06:29:40;0.30;23.50
530;DHT22;251;48.704;9.210;2023-03-01T06:32:07;0.40;23.60
530;DHT22;251;48.704;9.210;2023-03-01T06:34:34;0.40;23.60
530;DHT22;251;48.704;9.210;2023-03-01T06:37:01;0.60;24.00
530;DHT22;251;48.704;9.210;2023-03-01T06:39:32;0.10;24.30
530;DHT22;251;48.704;9.210;2023-03-01T06:41:59;0.40;24.10
530;DHT22;251;48.704;9.210;2023-03-01T06:44:26;0.40;23.90
530;DHT22;251;48.704;9.210;2023-03-01T06:46:53;0.60;24.50
530;DHT22;251;48.704;9.210;2023-03-01T06:49:20;0.60;24.20
530;DHT22;251;48.704;9.210;2023-03-01T06:51:46;0.60;23.80
530;DHT22;251;48.704;9.210;2023-03-01T06:54:13;0.60;23.70
530;DHT22;251;48.704;9.210;2023-03-01T06:56:42;0.60;23.60
530;DHT22;251;48.704;9.210;2023-03-01T06:59:08;0.50;23.70
530;DHT22;251;48.704;9.210;2023-03-01T07:01:35;0.60;23.50
530;DHT22;251;48.704;9.210;2023-03-01T07:04:02;0.50;23.10
530;DHT22;251;48.704;9.210;2023-03-01T07:06:29;0.50;23.50
530;DHT22;251;48.704;9.210;2023-03-01T07:08:56;0.60;23.70
530;DHT22;251;48.704;9.210;2023-03-01T07:11:22;0.60;23.80
530;DHT22;251;48.704;9.210;2023-03-01T07:13:50;0.70;23.40
530;DHT22;251;48.704;9.210;2023-03-01T07:16:18;0.60;23.40
530;DHT22;251;48.704;9.210;2023-03-01T07:18:46;0.70;23.70
530;DHT22;251;48.704;9.210;2023-03-01T07:21:14;0.50;23.60
530;DHT22;251;48.704;9.210;2023-03-01T07:23:41;0.30;22.90
530;DHT22;251;48.704;9.210;2023-03-01T07:26:08;0.30;23.10
530;DHT22;251;48.704;9.210;2023-03-01T07:28:35;0.50;23.40
530;DHT22;251;48.704;9.210;2023-03-01T07:31:05;0.60;23.60
530;DHT22;251;48.704;9.210;2023-03-01T07:33:32;0.40;23.00
530;DHT22;251;48.704;9.210;2023-03-01T07:36:00;0.70;23.50
530;DHT22;251;48.704;9.210;2023-03-01T07:38:29;0.60;23.30
530;DHT22;251;48.704;9.210;2023-03-01T07:41:00;0.40;23.40
530;DHT22;251;48.704;9.210;2023-03-01T07:43:28;0.60;23.30
530;DHT22;251;48.704;9.210;2023-03-01T07:45:58;0.60;23.30
530;DHT22;251;48.704;9.210;2023-03-01T07:48:26;0.60;23.30
530;DHT22;251;48.704;9.210;2023-03-01T07:50:53;0.60;23.40
530;DHT22;251;48.704;9.210;2023-03-01T07:53:20;0.50;23.00
530;DHT22;251;48.704;9.210;2023-03-01T07:55:47;0.90;23.20
530;DHT22;251;48.704;9.210;2023-03-01T07:58:13;0.90;23.20
530;DHT22;251;48.704;9.210;2023-03-01T08:00:40;0.90;23.30
530;DHT22;251;48.704;9.210;2023-03-01T08:03:07;0.80;23.50
530;DHT22;251;48.704;9.210;2023-03-01T08:05:35;0.80;22.90
530;DHT22;251;48.704;9.210;2023-03-01T08:08:01;0.80;22.80
530;DHT22;251;48.704;9.210;2023-03-01T08:10:28;0.80;23.10
530;DHT22;251;48.704;9.210;2023-03-01T08:12:55;0.70;22.50
530;DHT22;251;48.704;9.210;2023-03-01T08:15:22;0.80;22.50
530;DHT22;251;48.704;9.210;2023-03-01T08:17:49;1.00;22.90
530;DHT22;251;48.704;9.210;2023-03-01T08:20:16;1.00;22.90
530;DHT22;251;48.704;9.210;2023-03-01T08:22:44;1.00;23.00
530;DHT22;251;48.704;9.210;2023-03-01T08:25:11;1.00;22.60
530;DHT22;251;48.704;9.210;2023-03-01T08:27:37;1.00;22.50
530;DHT22;251;48.704;9.210;2023-03-01T08:30:06;1.00;22.80
530;DHT22;251;48.704;9.210;2023-03-01T08:32:35;1.00;22.70
530;DHT22;251;48.704;9.210;2023-03-01T08:35:03;0.90;22.60
530;DHT22;251;48.704;9.210;2023-03-01T08:37:30;1.10;22.70
530;DHT22;251;48.704;9.210;2023-03-01T08:40:00;1.00;22.00
530;DHT22;251;48.704;9.210;2023-03-01T08:42:29;1.20;22.20
530;DHT22;251;48.704;9.210;2023-03-01T08:44:55;1.20;21.80
530;DHT22;251;48.704;9.210;2023-03-01T08:47:22;1.20;21.60
530;DHT22;251;48.704;9.210;2023-03-01T08:49:49;1.30;21.40
530;DHT22;251;48.704;9.210;2023-03-01T08:52:16;1.20;21.20
530;DHT22;251;48.704;9.210;2023-03-01T08:54:43;1.30;21.20
530;DHT22;251;48.704;9.210;2023-03-01T08:57:11;1.30;20.70
530;DHT22;251;48.704;9.210;2023-03-01T08:59:38;1.30;20.70
530;DHT22;251;48.704;9.210;2023-03-01T09:02:08;1.50;20.60
530;DHT22;251;48.704;9.210;2023-03-01T09:04:36;1.50;20.30
530;DHT22;251;48.704;9.210;2023-03-01T09:07:03;1.50;19.70
530;DHT22;251;48.704;9.210;2023-03-01T09:09:30;1.70;20.10
530;DHT22;251;48.704;9.210;2023-03-01T09:11:57;1.70;21.10
530;DHT22;251;48.704;9.210;2023-03-01T09:14:25;1.70;20.30
530;DHT22;251;48.704;9.210;2023-03-01T09:16:51;1.90;20.10
530;DHT22;251;48.704;9.210;2023-03-01T09:19:18;1.80;19.80
530;DHT22;251;48.704;9.210;2023-03-01T09:21:45;1.70;19.30
530;DHT22;251;48.704;9.210;2023-03-01T09:24:19;1.80;18.80
530;DHT22;251;48.704;9.210;2023-03-01T09:26:46;2.10;19.20
530;DHT22;251;48.704;9.210;2023-03-01T09:29:14;2.00;19.20
530;DHT22;251;48.704;9.210;2023-03-01T09:31:42;2.00;18.20
530;DHT22;251;48.704;9.210;2023-03-01T09:34:09;2.00;18.30
530;DHT22;251;48.704;9.210;2023-03-01T09:36:37;2.00;18.00
530;DHT22;251;48.704;9.210;2023-03-01T09:39:04;2.20;17.80
530;DHT22;251;48.704;9.210;2023-03-01T09:41:42;2.40;18.00
530;DHT22;251;48.704;9.210;2023-03-01T09:44:16;2.30;18.00
530;DHT22;251;48.704;9.210;2023-03-01T09:46:48;2.30;17.70
530;DHT22;251;48.704;9.210;2023-03-01T09:49:17;2.50;17.50
530;DHT22;251;48.704;9.210;2023-03-01T09:51:54;2.80;18.20
530;DHT22;251;48.704;9.210;2023-03-01T09:54:22;2.30;17.40
530;DHT22;251;48.704;9.210;2023-03-01T09:56:59;2.30;17.40
530;DHT22;251;48.704;9.210;2023-03-01T09:59:31;2.50;17.80
530;DHT22;251;48.704;9.210;2023-03-01T10:02:21;2.50;17.70
530;DHT22;251;48.704;9.210;2023-03-01T10:04:49;2.50;17.70
530;DHT22;251;48.704;9.210;2023-03-01T10:07:25;2.80;17.80
530;DHT22;251;48.704;9.210;2023-03-01T10:09:53;2.50;17.70
530;DHT22;251;48.704;9.210;2023-03-01T10:12:23;2.50;17.30
530;DHT22;251;48.704;9.210;2023-03-01T10:14:57;2.90;17.00
530;DHT22;251;48.704;9.210;2023-03-01T10:17:32;2.90;17.00
530;DHT22;251;48.704;9.210;2023-03-01T10:20:14;3.00;16.60
530;DHT22;251;48.704;9.210;2023-03-01T10:22:42;3.00;17.30
530;DHT22;251;48.704;9.210;2023-03-01T10:25:13;3.10;17.00
530;DHT22;251;48.704;9.210;2023-03-01T10:27:45;2.90;16.60
530;DHT22;251;48.704;9.210;2023-03-01T10:30:20;3.10;16.70
530;DHT22;251;48.704;9.210;2023-03-01T10:32:51;3.30;16.80
530;DHT22;251;48.704;9.210;2023-03-01T10:35:23;3.20;16.60
530;DHT22;251;48.704;9.210;2023-03-01T10:38:03;3.20;16.70
530;DHT22;251;48.704;9.210;2023-03-01T10:40:31;3.30;16.80
530;DHT22;251;48.704;9.210;2023-03-01T10:43:00;3.30;16.50
530;DHT22;251;48.704;9.210;2023-03-01T10:45:33;3.50;15.70
530;DHT22;251;48.704;9.210;2023-03-01T10:48:13;3.60;16.20
530;DHT22;251;48.704;9.210;2023-03-01T10:50:41;3.60;15.80
530;DHT22;251;48.704;9.210;2023-03-01T10:53:22;3.50;16.10
530;DHT22;251;48.704;9.210;2023-03-01T10:55:58;3.60;16.10
530;DHT22;251;48.704;9.210;2023-03-01T10:58:25;3.60;15.70
530;DHT22;251;48.704;9.210;2023-03-01T11:00:54;3.50;15.40
530;DHT22;251;48.704;9.210;2023-03-01T11:03:24;3.60;15.60
530;DHT22;251;48.704;9.210;2023-03-01T11:06:01;3.80;15.80
530;DHT22;251;48.704;9.210;2023-03-01T11:08:37;4.00;15.50
530;DHT22;251;48.704;9.210;2023-03-01T11:11:17;4.10;15.80
530;DHT22;251;48.704;9.210;2023-03-01T11:13:54;3.90;14.70
530;DHT22;251;48.704;9.210;2023-03-01T11:16:33;4.10;15.80
530;DHT22;251;48.704;9.210;2023-03-01T11:19:17;4.10;14.00
530;DHT22;251;48.704;9.210;2023-03-01T11:21:52;4.10;14.70
530;DHT22;251;48.704;9.210;2023-03-01T11:24:22;4.40;14.00
530;DHT22;251;48.704;9.210;2023-03-01T11:26:53;4.70;13.60
530;DHT22;251;48.704;9.210;2023-03-01T11:29:27;4.80;13.80
530;DHT22;251;48.704;9.210;2023-03-01T11:31:57;5.30;13.50
530;DHT22;251;48.704;9.210;2023-03-01T11:34:36;5.20;12.70
530;DHT22;251;48.704;9.210;2023-03-01T11:37:12;5.40;11.10
530;DHT22;251;48.704;9.210;2023-03-01T11:39:45;5.90;10.90
530;DHT22;251;48.704;9.210;2023-03-01T11:42:17;5.60;10.40
530;DHT22;251;48.704;9.210;2023-03-01T11:44:47;5.60;10.30
530;DHT22;251;48.704;9.210;2023-03-01T11:47:25;6.10;10.30
530;DHT22;251;48.704;9.210;2023-03-01T11:50:05;5.90;9.90
530;DHT22;251;48.704;9.210;2023-03-01T11:52:43;6.10;9.90
530;DHT22;251;48.704;9.210;2023-03-01T11:55:26;5.90;10.40
530;DHT22;251;48.704;9.210;2023-03-01T11:58:07;6.20;9.80
530;DHT22;251;48.704;9.210;2023-03-01T12:00:50;6.30;10.90
530;DHT22;251;48.704;9.210;2023-03-01T12:03:27;6.40;10.00
530;DHT22;251;48.704;9.210;2023-03-01T12:06:19;6.40;9.20
530;DHT22;251;48.704;9.210;2023-03-01T12:08:59;6.50;9.20
530;DHT22;251;48.704;9.210;2023-03-01T12:11:41;6.50;8.30
530;DHT22;251;48.704;9.210;2023-03-01T12:14:35;6.80;8.40
530;DHT22;251;48.704;9.210;2023-03-01T12:17:15;6.80;7.60
530;DHT22;251;48.704;9.210;2023-03-01T12:20:02;6.70;7.20
530;DHT22;251;48.704;9.210;2023-03-01T12:22:44;6.80;7.50
530;DHT22;251;48.704;9.210;2023-03-01T12:25:21;6.70;7.70
530;DHT22;251;48.704;9.210;2023-03-01T12:30:59;7.10;7.20
530;DHT22;251;48.704;9.210;2023-03-01T12:33:34;7.10;7.30
530;DHT22;251;48.704;9.210;2023-03-01T12:36:20;7.10;7.50
530;DHT22;251;48.704;9.210;2023-03-01T12:38:59;7.20;7.50
530;DHT22;251;48.704;9.210;2023-03-01T12:41:46;7.10;7.10
530;DHT22;251;48.704;9.210;2023-03-01T12:44:31;7.20;6.70
530;DHT22;251;48.704;9.210;2023-03-01T12:47:14;7.30;7.00
530;DHT22;251;48.704;9.210;2023-03-01T12:49:46;7.10;6.10
530;DHT22;251;48.704;9.210;2023-03-01T12:52:16;7.20;6.50
530;DHT22;251;48.704;9.210;2023-03-01T12:54:49;7.30;6.50
530;DHT22;251;48.704;9.210;2023-03-01T12:57:23;7.10;6.10
530;DHT22;251;48.704;9.210;2023-03-01T13:00:05;7.20;6.80
530;DHT22;251;48.704;9.210;2023-03-01T13:02:40;7.40;7.20
530;DHT22;251;48.704;9.210;2023-03-01T13:05:23;7.20;7.10
530;DHT22;251;48.704;9.210;2023-03-01T13:07:57;7.00;6.50
530;DHT22;251;48.704;9.210;2023-03-01T13:10:31;7.10;6.70
530;DHT22;251;48.704;9.210;2023-03-01T13:13:19;7.00;6.80
530;DHT22;251;48.704;9.210;2023-03-01T13:15:46;7.10;6.90
530;DHT22;251;48.704;9.210;2023-03-01T13:18:29;7.10;7.40
530;DHT22;251;48.704;9.210;2023-03-01T13:20:58;7.40;6.80
530;DHT22;251;48.704;9.210;2023-03-01T13:23:28;7.10;7.10
530;DHT22;251;48.704;9.210;2023-03-01T13:26:08;7.20;6.80
530;DHT22;251;48.704;9.210;2023-03-01T13:28:53;7.10;7.70
530;DHT22;251;48.704;9.210;2023-03-01T13:34:44;7.10;7.20
530;DHT22;251;48.704;9.210;2023-03-01T13:37:19;7.00;7.00
530;DHT22;251;48.704;9.210;2023-03-01T13:39:49;7.10;7.90
530;DHT22;251;48.704;9.210;2023-03-01T13:42:45;7.10;7.40
530;DHT22;251;48.704;9.210;2023-03-01T13:45:24;7.10;7.80
530;DHT22;251;48.704;9.210;2023-03-01T13:47:58;7.00;6.80
530;DHT22;251;48.704;9.210;2023-03-01T13:50:38;7.40;8.00
530;DHT22;251;48.704;9.210;2023-03-01T13:53:14;7.40;7.30
530;DHT22;251;48.704;9.210;2023-03-01T13:55:44;7.00;6.80
530;DHT22;251;48.704;9.210;2023-03-01T13:58:21;7.30;7.80
530;DHT22;251;48.704;9.210;2023-03-01T14:00:56;7.00;7.80
530;DHT22;251;48.704;9.210;2023-03-01T14:03:23;7.10;7.60
530;DHT22;251;48.704;9.210;2023-03-01T14:06:05;7.00;7.70
530;DHT22;251;48.704;9.210;2023-03-01T14:08:34;7.20;7.40
530;DHT22;251;48.704;9.210;2023-03-01T14:11:31;7.10;6.90
530;DHT22;251;48.704;9.210;2023-03-01T14:14:34;7.10;7.10
530;DHT22;251;48.704;9.210;2023-03-01T14:17:19;7.10;8.00
530;DHT22;251;48.704;9.210;2023-03-01T14:19:56;7.40;7.40
530;DHT22;251;48.704;9.210;2023-03-01T14:22:26;7.40;7.50
530;DHT22;251;48.704;9.210;2023-03-01T14:24:55;7.00;7.70
530;DHT22;251;48.704;9.210;2023-03-01T14:27:23;7.00;7.80
530;DHT22;251;48.704;9.210;2023-03-01T14:29:59;7.10;8.20
530;DHT22;251;48.704;9.210;2023-03-01T14:32:27;7.10;8.40
530;DHT22;251;48.704;9.210;2023-03-01T14:34:55;7.10;7.80
530;DHT22;251;48.704;9.210;2023-03-01T14:37:26;7.10;8.30
530;DHT22;251;48.704;9.210;2023-03-01T14:39:53;7.20;8.00
530;DHT22;251;48.704;9.210;2023-03-01T14:42:22;7.00;8.40
530;DHT22;251;48.704;9.210;2023-03-01T14:44:52;7.10;8.40
530;DHT22;251;48.704;9.210;2023-03-01T14:47:25;7.10;8.70
530;DHT22;251;48.704;9.210;2023-03-01T14:49:57;7.10;7.70
530;DHT22;251;48.704;9.210;2023-03-01T14:52:31;7.00;9.00
530;DHT22;251;48.704;9.210;2023-03-01T14:55:02;7.10;8.40
530;DHT22;251;48.704;9.210;2023-03-01T14:57:30;7.10;7.90
530;DHT22;251;48.704;9.210;2023-03-01T14:59:58;7.30;7.90
530;DHT22;251;48.704;9.210;2023-03-01T15:02:31;7.00;7.20
530;DHT22;251;48.704;9.210;2023-03-01T15:05:01;7.40;7.70
530;DHT22;251;48.704;9.210;2023-03-01T15:07:31;7.10;8.00
530;DHT22;251;48.704;9.210;2023-03-01T15:09:59;7.00;8.10
530;DHT22;251;48.704;9.210;2023-03-01T15:12:38;7.00;7.80
530;DHT22;251;48.704;9.210;2023-03-01T15:15:33;7.20;7.70
530;DHT22;251;48.704;9.210;2023-03-01T15:18:03;7.00;7.80
530;DHT22;251;48.704;9.210;2023-03-01T15:20:33;7.30;7.70
530;DHT22;251;48.704;9.210;2023-03-01T15:23:02;7.40;7.70
530;DHT22;251;48.704;9.210;2023-03-01T15:25:30;7.40;7.50
530;DHT22;251;48.704;9.210;2023-03-01T15:27:59;7.30;7.70
530;DHT22;251;48.704;9.210;2023-03-01T15:30:30;7.50;7.60
530;DHT22;251;48.704;9.210;2023-03-01T15:33:38;7.50;7.30
530;DHT22;251;48.704;9.210;2023-03-01T15:36:35;7.40;7.00
530;DHT22;251;48.704;9.210;2023-03-01T15:39:05;7.40;6.90
530;DHT22;251;48.704;9.210;2023-03-01T15:41:52;7.50;7.00
530;DHT22;251;48.704;9.210;2023-03-01T15:44:28;7.80;7.00
530;DHT22;251;48.704;9.210;2023-03-01T15:46:55;7.40;7.50
530;DHT22;251;48.704;9.210;2023-03-01T15:49:32;7.50;7.30
530;DHT22;251;48.704;9.210;2023-03-01T15:51:59;7.80;7.40
530;DHT22;251;48.704;9.210;2023-03-01T15:54:27;7.50;6.80
530;DHT22;251;48.704;9.210;2023-03-01T15:56:54;7.50;6.90
530;DHT22;251;48.704;9.210;2023-03-01T15:59:21;7.40;7.10
530;DHT22;251;48.704;9.210;2023-03-01T16:01:48;7.40;7.10
530;DHT22;251;48.704;9.210;2023-03-01T16:04:16;7.40;7.00
530;DHT22;251;48.704;9.210;2023-03-01T16:06:50;7.40;7.00
530;DHT22;251;48.704;9.210;2023-03-01T16:09:22;7.10;7.10
530;DHT22;251;48.704;9.210;2023-03-01T16:11:49;7.10;7.00
530;DHT22;251;48.704;9.210;2023-03-01T16:14:16;7.00;7.30
530;DHT22;251;48.704;9.210;2023-03-01T16:16:44;7.00;7.30
530;DHT22;251;48.704;9.210;2023-03-01T16:19:11;7.00;8.20
530;DHT22;251;48.704;9.210;2023-03-01T16:21:38;7.10;8.20
530;DHT22;251;48.704;9.210;2023-03-01T16:24:07;6.70;7.90
530;DHT22;251;48.704;9.210;2023-03-01T16:26:34;6.80;7.60
530;DHT22;251;48.704;9.210;2023-03-01T16:29:01;6.70;8.20
530;DHT22;251;48.704;9.210;2023-03-01T16:31:28;6.70;8.10
530;DHT22;251;48.704;9.210;2023-03-01T16:33:56;6.80;8.60
530;DHT22;251;48.704;9.210;2023-03-01T16:36:25;6.80;8.30
530;DHT22;251;48.704;9.210;2023-03-01T16:38:53;6.50;8.10
530;DHT22;251;48.704;9.210;2023-03-01T16:41:23;6.30;8.20
530;DHT22;251;48.704;9.210;2023-03-01T16:43:51;6.40;8.30
530;DHT22;251;48.704;9.210;2023-03-01T16:46:20;6.50;8.50
530;DHT22;251;48.704;9.210;2023-03-01T16:48:48;6.50;8.70
530;DHT22;251;48.704;9.210;2023-03-01T16:51:15;6.50;8.70
530;DHT22;251;48.704;9.210;2023-03-01T16:53:42;6.50;8.70
530;DHT22;251;48.704;9.210;2023-03-01T16:56:10;6.40;9.00
530;DHT22;251;48.704;9.210;2023-03-01T16:58:40;6.00;8.60
530;DHT22;251;48.704;9.210;2023-03-01T17:01:08;6.20;8.90
530;DHT22;251;48.704;9.210;2023-03-01T17:03:36;6.20;9.00
530;DHT22;251;48.704;9.210;2023-03-01T17:06:05;5.90;8.50
530;DHT22;251;48.704;9.210;2023-03-01T17:08:33;5.90;8.80
530;DHT22;251;48.704;9.210;2023-03-01T17:11:04;5.70;8.80
530;DHT22;251;48.704;9.210;2023-03-01T17:13:31;6.10;9.20
530;DHT22;251;48.704;9.210;2023-03-01T17:16:02;6.10;9.20
530;DHT22;251;48.704;9.210;2023-03-01T17:18:30;5.80;9.30
530;DHT22;251;48.704;9.210;2023-03-01T17:20:57;5.70;9.10
530;DHT22;251;48.704;9.210;2023-03-01T17:23:24;5.90;9.60